• Join FlightAware (Why Join?)
  • Login
  • US Flag GB Flag 
13:52 EST


 

Airport Tracker/Info


-or-


 

Live Flight TrackerFlight Track Log ✈ UAL4679 ✈ 30-Apr-2013 ✈ KEWR - KJAX

Flight Track Log - Related Links

Times and Time Zones

All times are in EDT time to prevent confusion due to time zone crossing. See the UAL4679 flight status page for this flight to view local times or setup timezone preferences in your user account.

Time Position Orientation Groundspeed Altitude Reporting Facility
EDT Latitude Longitude Course Direction KTS MPH feet Rate Location/Type
15:59 40.6667 -74.1833 194° South 161 185 600  Level New York TRACON
16:00 40.6167 -74.2167 207° Southwest 226 260 2,200 1,920 Climbing New York TRACON
16:01 40.5667 -74.2667 217° Southwest 257 296 4,500 1,860 Climbing New York TRACON
16:02 40.3971 -74.1985 159° South  Level FlightAware Approximate
16:02 40.4833 -74.2500 171° South 254 292 6,000  Level New York TRACON
16:03 40.2977 -74.1508 194° South  Level FlightAware Approximate
16:03 40.4167 -74.2167 159° South 265 305 6,100  Level New York TRACON
16:04 40.1948 -74.1851 194° South  Level FlightAware Approximate
16:04 40.3500 -74.1833 159° South 256 295 6,400  Level New York TRACON
16:05 40.3044 -74.1647 163° South 276 318 7,800 1,860 Climbing New York Center
16:06 40.2289 -74.1883 193° South 276 318 9,700 1,680 Climbing New York Center
16:07 40.1489 -74.2114 192° South 281 323 11,200 1,200 Climbing New York Center
16:08 40.0689 -74.2347 193° South 312 359 12,200 840 Climbing New York Center
16:08 40.0350 -74.2419 189° South 352 405 12,400 1,020 Climbing Washington Center
16:10 39.9181 -74.4031 227° Southwest 337 388 14,300 960 Climbing New York Center
16:11 39.8047 -74.5328 221° Southwest 372 428 15,600 900 Climbing Washington Center
16:12 39.7242 -74.6256 222° Southwest 377 434 16,600 960 Climbing Washington Center
16:13 39.6417 -74.7183 221° Southwest 388 447 17,600 840 Climbing Washington Center
16:14 39.5528 -74.8192 221° Southwest 388 447 18,300 780 Climbing Washington Center
16:15 39.4719 -74.9167 223° Southwest 388 447 19,200 900 Climbing Washington Center
16:16 39.3911 -75.0089 221° Southwest 388 447 20,200 960 Climbing Washington Center
16:17 39.3061 -75.1033 221° Southwest 388 447 21,200 960 Climbing Washington Center
16:18 39.2000 -75.1578 202° Southwest 393 452 22,200 960 Climbing Washington Center
16:19 39.0919 -75.2011 197° South 399 459 23,200 900 Climbing Washington Center
16:20 38.9817 -75.2497 199° South 411 473 24,100 900 Climbing Washington Center
16:21 38.8753 -75.2903 197° South 411 473 25,100 960 Climbing Washington Center
16:22 38.7692 -75.3361 199° South 411 473 26,100 960 Climbing Washington Center
16:23 38.6628 -75.3817 198° South 406 467 27,100 900 Climbing Washington Center
16:24 38.5589 -75.4297 200° South 401 461 28,000 900 Climbing Washington Center
16:25 38.4714 -75.5069 215° Southwest 396 456 29,000 960 Climbing Washington Center
16:26 38.3836 -75.5811 214° Southwest 390 449 30,000 900 Climbing Washington Center
16:27 38.3044 -75.6472 213° Southwest 390 449 30,900 960 Climbing Washington Center
16:28 38.2169 -75.7239 215° Southwest 390 449 31,900 900 Climbing Washington Center
16:29 38.1292 -75.8003 214° Southwest 390 449 32,800 900 Climbing Washington Center
16:30 38.0394 -75.8792 215° Southwest 390 449 33,800 960 Climbing Washington Center
16:31 37.9536 -75.9553 215° Southwest 390 449 34,800 900 Climbing Washington Center
16:32 37.8678 -76.0283 214° Southwest 390 449 35,700 600 Climbing Washington Center
16:33 37.7758 -76.1172 217° Southwest 385 443 36,000 120 Climbing Washington Center
16:34 37.6900 -76.1822 211° Southwest 390 449 36,000  Level Washington Center
16:35 37.5956 -76.2628 214° Southwest 400 460 36,000  Level Washington Center
16:36 37.5014 -76.3458 215° Southwest 413 475 36,000  Level Washington Center
16:37 37.4050 -76.4258 213° Southwest 418 481 36,000  Level Washington Center
16:38 37.3083 -76.5083 214° Southwest 418 481 36,000  Level Washington Center
16:39 37.2139 -76.5881 214° Southwest 418 481 36,000  Level Washington Center
16:40 37.1172 -76.6703 214° Southwest 418 481 36,000  Level Washington Center
16:41 37.0225 -76.7547 215° Southwest 418 481 36,000  Level Washington Center
16:42 36.9258 -76.8364 214° Southwest 418 481 36,000  Level Washington Center
16:43 36.8289 -76.9153 213° Southwest 423 487 36,000  Level Washington Center
16:44 36.7300 -76.9967 213° Southwest 423 487 36,000  Level Washington Center
16:45 36.6369 -77.0856 217° Southwest 423 487 36,000  Level Washington Center
16:46 36.5442 -77.1742 218° Southwest 423 487 36,000  Level Washington Center
16:47 36.4511 -77.2628 217° Southwest 423 487 36,000  Level Washington Center
16:48 36.3558 -77.3508 217° Southwest 423 487 36,000  Level Washington Center
16:49 36.2628 -77.4389 217° Southwest 423 487 36,000  Level Washington Center
16:50 36.1717 -77.5244 217° Southwest 423 487 36,000  Level Washington Center
16:51 36.0786 -77.6119 217° Southwest 423 487 36,000  Level Washington Center
16:52 35.9831 -77.6994 217° Southwest 428 493 36,000  Level Washington Center
16:53 35.8814 -77.7814 213° Southwest 434 499 36,000  Level Washington Center
16:54 35.7819 -77.8581 212° Southwest 434 499 36,000  Level Washington Center
16:55 35.6825 -77.9369 213° Southwest 439 505 36,000  Level Washington Center
16:56 35.5786 -78.0156 212° Southwest 439 505 36,000  Level Washington Center
16:57 35.4767 -78.0967 213° Southwest 444 511 36,000  Level Washington Center
16:58 35.3728 -78.1750 212° Southwest 444 511 36,000  Level Washington Center
16:59 35.2711 -78.2531 212° Southwest 444 511 36,000  Level Washington Center
17:00 35.1689 -78.3361 214° Southwest 444 511 36,000  Level Washington Center
17:01 35.0650 -78.4139 212° Southwest 444 511 36,000  Level Washington Center
17:02 34.9628 -78.4939 213° Southwest 444 511 36,000  Level Washington Center
17:03 34.8586 -78.5736 212° Southwest 444 511 36,000  Level Washington Center
17:05 34.6503 -78.7308 212° Southwest 426 490 36,000  Level Jacksonville Center
17:06 34.5525 -78.8061 212° Southwest 421 484 36,000  Level Jacksonville Center
17:07 34.4550 -78.8864 214° Southwest 421 484 36,000  Level Jacksonville Center
17:08 34.3592 -78.9586 212° Southwest 421 484 36,000  Level Jacksonville Center
17:09 34.2656 -79.0308 213° Southwest 421 484 36,000  Level Jacksonville Center
17:10 34.1617 -79.1133 213° Southwest 416 479 36,000  Level Jacksonville Center
17:11 34.0697 -79.1847 213° Southwest 405 466 36,000  Level Jacksonville Center
17:12 33.9800 -79.2539 213° Southwest 405 466 36,000 -120 Level Jacksonville Center
17:13 33.8881 -79.3228 212° Southwest 400 460 35,800 -600 Descending Jacksonville Center
17:14 33.7942 -79.3964 213° Southwest 400 460 34,800 -900 Descending Jacksonville Center
17:15 33.7125 -79.4569 212° Southwest 401 461 34,000 -420 Descending Jacksonville Center
17:16 33.6164 -79.5331 213° Southwest 406 467 34,000  Level Jacksonville Center
17:17 33.5183 -79.6092 213° Southwest 412 474 34,000  Level Jacksonville Center
17:18 33.4158 -79.6875 213° Southwest 429 494 34,000  Level Jacksonville Center
17:19 33.3136 -79.7658 213° Southwest 434 499 34,000  Level Jacksonville Center
17:20 33.2131 -79.8414 212° Southwest 434 499 34,000 -480 Level Jacksonville Center
17:21 33.1147 -79.9167 213° Southwest 434 499 33,100 -960 Descending Jacksonville Center
17:22 33.0161 -79.9892 212° Southwest 422 486 32,100 -1,020 Descending Jacksonville Center
17:23 32.9197 -80.0617 212° Southwest 422 486 31,100 -1,020 Descending Jacksonville Center
17:24 32.8253 -80.1364 214° Southwest 422 486 30,100 -600 Descending Jacksonville Center
17:25 32.7269 -80.2108 212° Southwest 422 486 30,000 -60 Descending Jacksonville Center
17:26 32.6178 -80.2931 212° Southwest 422 486 30,000  Level Jacksonville Center
17:27 32.5150 -80.3697 212° Southwest 427 491 30,000  Level Jacksonville Center
17:28 32.4103 -80.4492 213° Southwest 433 498 30,000 -420 Level Jacksonville Center
17:29 32.3094 -80.5256 213° Southwest 433 498 29,200 -900 Descending Jacksonville Center
17:30 32.2064 -80.5994 211° Southwest 439 505 28,200 -1,020 Descending Jacksonville Center
17:31 32.1053 -80.6756 213° Southwest 433 498 27,200 -1,020 Descending Jacksonville Center
17:32 32.0044 -80.7539 213° Southwest 441 507 26,200 -1,020 Descending Jacksonville Center
17:33 31.9094 -80.8222 211° Southwest 441 507 25,200 -1,080 Descending Jacksonville Center
17:34 31.7961 -80.9053 212° Southwest 446 513 24,100 -1,080 Descending Jacksonville Center
17:35 31.7031 -80.9708 211° Southwest 446 513 23,100 -600 Descending Jacksonville Center
17:36 31.5917 -81.0536 212° Southwest 446 513 23,000 -540 Descending Jacksonville Center
17:37 31.4883 -81.1264 211° Southwest 446 513 22,100 -1,920 Descending Jacksonville Center
17:38 31.4014 -81.1911 212° Southwest 429 494 19,200 -3,000 Descending Jacksonville Center
17:39 31.3064 -81.2633 213° Southwest 413 475 16,200 -3,000 Descending Jacksonville Center
17:40 31.2153 -81.3281 211° Southwest 406 467 13,200 -3,180 Descending Jacksonville Center
17:41 31.1428 -81.3781 211° Southwest 370 426 10,900 -2,640 Descending Jacksonville Center
17:41 31.1261 -81.3903 212° Southwest 389 448 10,600 -1,200 Descending Jacksonville Center
17:42 31.0911 -81.4175 214° Southwest 361 415 10,200 -720 Descending Jacksonville Center
17:42 31.0392 -81.4522 210° Southwest 376 433 9,900 -180 Descending Jacksonville Center
17:43 30.9522 -81.5094 209° Southwest 371 427 9,900 -300 Level Jacksonville Center
17:44 30.8756 -81.5589 209° Southwest 350 403 9,300 -900 Descending Jacksonville Center
17:45 30.8422 -81.5786 207° Southwest 272 313 8,700 -1,620 Descending Jacksonville Center
17:45 30.8111 -81.6008 212° Southwest 308 354 7,700 -1,860 Descending Jacksonville Center
17:46 30.7842 -81.6183 209° Southwest 273 314 7,000 -1,800 Descending Jacksonville Center
17:46 30.7447 -81.6431 208° Southwest 286 329 5,900 -1,500 Descending Jacksonville Center